North Lyme, Connecticut
Current Conditions -  °F | °C
As of 1:35 AM on Thursday 27 Nov 2014 (Local Time) from KSNC Reporting Station
Broken Clouds Broken Clouds  
Wind Chill: 24°   Ceiling: 1000
Heat Index: 34°   Visibility: 10mi
Dew Point: 32°   Wind: 14mph
Humidity: 93%   Direction: 350°N
Pressure: 29.76"   Gusts: 24mph
Location:  41.3657°N, 72.322°W
Report Text: KSNC 270635Z AUTO 35012G21KT 10SM BKN010 BKN060 01/00 A2976 RMK AO2
Loading
Personal Weather Stations






























Interactive Weather Map New forecast layout! Learn more

10-Day Weather Forecast

Advertisements
Track Severe Weather on mobile